East Wallingford, Vermont
Current Conditions -  °F | °C
As of 4:55 PM on Saturday 25 Oct 2014 (Local Time) from KRUT Reporting Station
Overcast Overcast  
Wind Chill: 55°   Ceiling: 10000
Heat Index: 55°   Visibility: 10mi
Dew Point: 45°   Wind: 7mph
Humidity: 67%   Direction: 240°WSW
Pressure: 29.58"   Gusts: NA
Location:  43.45°N, 72.88°W
Report Text: KRUT 252055Z 24006KT 190V250 10SM SCT050 OVC100 13/07 A2958 RMK AO1 57024
Loading
Personal Weather Stations






























Interactive Weather Map
Tropical Storm Tracking
New forecast layout! Learn more

10-Day Weather Forecast

Advertisements
Track Severe Weather on mobile